sensor_id;sensor_type;location;lat;lon;timestamp;P1;durP1;ratioP1;P2;durP2;ratioP2
80123;SDS011;69433;48.642;9.142;2023-12-22T00:02:32;8.80;;;4.50;;
80123;SDS011;69433;48.642;9.142;2023-12-22T00:05:00;7.63;;;3.67;;
80123;SDS011;69433;48.642;9.142;2023-12-22T00:07:25;6.80;;;4.20;;
80123;SDS011;69433;48.642;9.142;2023-12-22T00:09:52;7.28;;;4.30;;
80123;SDS011;69433;48.642;9.142;2023-12-22T00:12:18;8.27;;;4.03;;
80123;SDS011;69433;48.642;9.142;2023-12-22T00:14:49;7.43;;;4.15;;
80123;SDS011;69433;48.642;9.142;2023-12-22T00:17:18;10.32;;;4.55;;
80123;SDS011;69433;48.642;9.142;2023-12-22T00:19:51;7.50;;;3.65;;
80123;SDS011;69433;48.642;9.142;2023-12-22T00:22:24;7.53;;;4.32;;
80123;SDS011;69433;48.642;9.142;2023-12-22T00:24:59;6.70;;;3.83;;
80123;SDS011;69433;48.642;9.142;2023-12-22T00:27:30;7.43;;;3.92;;
80123;SDS011;69433;48.642;9.142;2023-12-22T00:30:08;7.05;;;4.07;;
80123;SDS011;69433;48.642;9.142;2023-12-22T00:32:35;6.97;;;3.90;;
80123;SDS011;69433;48.642;9.142;2023-12-22T00:35:02;11.52;;;4.05;;
80123;SDS011;69433;48.642;9.142;2023-12-22T00:37:35;5.88;;;3.60;;
80123;SDS011;69433;48.642;9.142;2023-12-22T00:40:02;7.03;;;3.97;;
80123;SDS011;69433;48.642;9.142;2023-12-22T00:42:34;5.93;;;3.58;;
80123;SDS011;69433;48.642;9.142;2023-12-22T00:45:02;6.50;;;3.67;;
80123;SDS011;69433;48.642;9.142;2023-12-22T00:47:46;6.93;;;3.53;;
80123;SDS011;69433;48.642;9.142;2023-12-22T00:50:14;5.45;;;3.25;;
80123;SDS011;69433;48.642;9.142;2023-12-22T01:04:34;6.35;;;3.70;;
80123;SDS011;69433;48.642;9.142;2023-12-22T01:07:00;6.25;;;3.60;;
80123;SDS011;69433;48.642;9.142;2023-12-22T01:09:26;5.18;;;3.30;;
80123;SDS011;69433;48.642;9.142;2023-12-22T01:11:52;5.90;;;3.50;;
80123;SDS011;69433;48.642;9.142;2023-12-22T01:14:17;6.63;;;3.00;;
80123;SDS011;69433;48.642;9.142;2023-12-22T01:19:20;5.68;;;3.05;;
80123;SDS011;69433;48.642;9.142;2023-12-22T01:21:45;5.43;;;3.25;;
80123;SDS011;69433;48.642;9.142;2023-12-22T01:26:50;6.20;;;3.33;;
80123;SDS011;69433;48.642;9.142;2023-12-22T01:29:15;6.05;;;3.17;;
80123;SDS011;69433;48.642;9.142;2023-12-22T01:31:59;5.30;;;3.15;;
80123;SDS011;69433;48.642;9.142;2023-12-22T01:37:25;5.07;;;2.80;;
80123;SDS011;69433;48.642;9.142;2023-12-22T01:39:51;4.55;;;2.92;;
80123;SDS011;69433;48.642;9.142;2023-12-22T01:42:21;5.50;;;2.88;;
80123;SDS011;69433;48.642;9.142;2023-12-22T01:44:46;5.32;;;2.65;;
80123;SDS011;69433;48.642;9.142;2023-12-22T01:47:12;4.38;;;2.80;;
80123;SDS011;69433;48.642;9.142;2023-12-22T01:49:44;9.27;;;3.30;;
80123;SDS011;69433;48.642;9.142;2023-12-22T01:52:11;6.57;;;2.92;;
80123;SDS011;69433;48.642;9.142;2023-12-22T01:54:38;5.07;;;3.03;;
80123;SDS011;69433;48.642;9.142;2023-12-22T01:57:12;21.40;;;3.20;;
80123;SDS011;69433;48.642;9.142;2023-12-22T01:59:45;6.85;;;3.10;;
80123;SDS011;69433;48.642;9.142;2023-12-22T02:02:13;4.95;;;2.90;;
80123;SDS011;69433;48.642;9.142;2023-12-22T02:04:39;5.70;;;3.03;;
80123;SDS011;69433;48.642;9.142;2023-12-22T02:07:06;4.97;;;2.60;;
80123;SDS011;69433;48.642;9.142;2023-12-22T02:09:33;5.35;;;2.90;;
80123;SDS011;69433;48.642;9.142;2023-12-22T02:12:02;4.75;;;2.70;;
80123;SDS011;69433;48.642;9.142;2023-12-22T02:14:28;5.35;;;2.92;;
80123;SDS011;69433;48.642;9.142;2023-12-22T02:20:04;5.22;;;2.35;;
80123;SDS011;69433;48.642;9.142;2023-12-22T02:22:31;5.10;;;2.70;;
80123;SDS011;69433;48.642;9.142;2023-12-22T02:24:57;4.15;;;2.38;;
80123;SDS011;69433;48.642;9.142;2023-12-22T02:30:23;5.07;;;2.63;;
80123;SDS011;69433;48.642;9.142;2023-12-22T02:33:15;6.47;;;2.58;;
80123;SDS011;69433;48.642;9.142;2023-12-22T02:35:48;3.33;;;2.55;;
80123;SDS011;69433;48.642;9.142;2023-12-22T02:38:15;3.88;;;2.67;;
80123;SDS011;69433;48.642;9.142;2023-12-22T02:40:51;5.20;;;2.63;;
80123;SDS011;69433;48.642;9.142;2023-12-22T02:43:23;5.22;;;3.00;;
80123;SDS011;69433;48.642;9.142;2023-12-22T02:48:19;9.55;;;2.67;;
80123;SDS011;69433;48.642;9.142;2023-12-22T02:50:44;5.75;;;2.65;;
80123;SDS011;69433;48.642;9.142;2023-12-22T02:53:17;4.10;;;2.30;;
80123;SDS011;69433;48.642;9.142;2023-12-22T02:55:53;4.75;;;2.38;;
80123;SDS011;69433;48.642;9.142;2023-12-22T03:01:07;4.80;;;2.28;;
80123;SDS011;69433;48.642;9.142;2023-12-22T03:03:35;4.38;;;2.50;;
80123;SDS011;69433;48.642;9.142;2023-12-22T03:06:00;7.45;;;2.33;;
80123;SDS011;69433;48.642;9.142;2023-12-22T03:08:31;4.50;;;2.17;;
80123;SDS011;69433;48.642;9.142;2023-12-22T03:10:57;5.90;;;2.25;;
80123;SDS011;69433;48.642;9.142;2023-12-22T03:13:22;4.78;;;2.13;;
80123;SDS011;69433;48.642;9.142;2023-12-22T03:16:01;3.60;;;2.13;;
80123;SDS011;69433;48.642;9.142;2023-12-22T03:18:26;3.65;;;2.20;;
80123;SDS011;69433;48.642;9.142;2023-12-22T03:20:51;4.70;;;2.40;;
80123;SDS011;69433;48.642;9.142;2023-12-22T03:23:18;3.90;;;2.40;;
80123;SDS011;69433;48.642;9.142;2023-12-22T03:25:43;3.88;;;2.15;;
80123;SDS011;69433;48.642;9.142;2023-12-22T03:28:08;3.53;;;2.03;;
80123;SDS011;69433;48.642;9.142;2023-12-22T03:30:34;4.47;;;2.10;;
80123;SDS011;69433;48.642;9.142;2023-12-22T03:33:04;3.75;;;2.20;;
80123;SDS011;69433;48.642;9.142;2023-12-22T03:35:33;3.90;;;2.28;;
80123;SDS011;69433;48.642;9.142;2023-12-22T03:40:50;4.28;;;2.03;;
80123;SDS011;69433;48.642;9.142;2023-12-22T03:43:15;6.05;;;2.55;;
80123;SDS011;69433;48.642;9.142;2023-12-22T03:45:40;3.83;;;2.17;;
80123;SDS011;69433;48.642;9.142;2023-12-22T03:48:19;5.55;;;2.20;;
80123;SDS011;69433;48.642;9.142;2023-12-22T03:50:49;5.38;;;2.30;;
80123;SDS011;69433;48.642;9.142;2023-12-22T03:53:14;5.00;;;1.90;;
80123;SDS011;69433;48.642;9.142;2023-12-22T03:55:39;4.65;;;2.00;;
80123;SDS011;69433;48.642;9.142;2023-12-22T03:58:06;4.97;;;1.90;;
80123;SDS011;69433;48.642;9.142;2023-12-22T04:00:32;3.08;;;1.92;;
80123;SDS011;69433;48.642;9.142;2023-12-22T04:03:03;2.97;;;1.83;;
80123;SDS011;69433;48.642;9.142;2023-12-22T04:05:34;4.10;;;1.90;;
80123;SDS011;69433;48.642;9.142;2023-12-22T04:08:00;4.85;;;1.90;;
80123;SDS011;69433;48.642;9.142;2023-12-22T04:10:25;3.80;;;2.50;;
80123;SDS011;69433;48.642;9.142;2023-12-22T04:15:36;4.32;;;1.70;;
80123;SDS011;69433;48.642;9.142;2023-12-22T04:18:02;3.10;;;2.03;;
80123;SDS011;69433;48.642;9.142;2023-12-22T04:20:27;3.63;;;2.00;;
80123;SDS011;69433;48.642;9.142;2023-12-22T04:22:53;2.97;;;2.00;;
80123;SDS011;69433;48.642;9.142;2023-12-22T04:25:18;3.33;;;1.90;;
80123;SDS011;69433;48.642;9.142;2023-12-22T04:27:43;4.03;;;1.98;;
80123;SDS011;69433;48.642;9.142;2023-12-22T04:30:10;4.00;;;1.90;;
80123;SDS011;69433;48.642;9.142;2023-12-22T04:32:37;4.32;;;2.00;;
80123;SDS011;69433;48.642;9.142;2023-12-22T04:37:34;2.60;;;1.52;;
80123;SDS011;69433;48.642;9.142;2023-12-22T04:42:51;3.58;;;1.73;;
80123;SDS011;69433;48.642;9.142;2023-12-22T04:45:17;3.13;;;1.50;;
80123;SDS011;69433;48.642;9.142;2023-12-22T04:47:43;3.28;;;1.60;;
80123;SDS011;69433;48.642;9.142;2023-12-22T04:50:11;4.78;;;1.70;;
80123;SDS011;69433;48.642;9.142;2023-12-22T04:52:37;3.50;;;1.80;;
80123;SDS011;69433;48.642;9.142;2023-12-22T04:55:05;4.00;;;1.50;;
80123;SDS011;69433;48.642;9.142;2023-12-22T04:57:35;3.42;;;1.63;;
80123;SDS011;69433;48.642;9.142;2023-12-22T05:00:02;3.35;;;1.50;;
80123;SDS011;69433;48.642;9.142;2023-12-22T05:02:34;4.55;;;1.85;;
80123;SDS011;69433;48.642;9.142;2023-12-22T05:05:01;3.95;;;1.60;;
80123;SDS011;69433;48.642;9.142;2023-12-22T05:10:11;3.53;;;1.55;;
80123;SDS011;69433;48.642;9.142;2023-12-22T05:12:43;4.30;;;1.75;;
80123;SDS011;69433;48.642;9.142;2023-12-22T05:15:13;2.95;;;1.65;;
80123;SDS011;69433;48.642;9.142;2023-12-22T05:17:39;2.67;;;1.50;;
80123;SDS011;69433;48.642;9.142;2023-12-22T05:20:05;3.17;;;1.63;;
80123;SDS011;69433;48.642;9.142;2023-12-22T05:27:27;2.25;;;1.23;;
80123;SDS011;69433;48.642;9.142;2023-12-22T05:32:43;4.65;;;1.50;;
80123;SDS011;69433;48.642;9.142;2023-12-22T05:35:09;6.25;;;1.55;;
80123;SDS011;69433;48.642;9.142;2023-12-22T05:37:53;5.72;;;1.60;;
80123;SDS011;69433;48.642;9.142;2023-12-22T05:49:18;6.68;;;1.52;;
80123;SDS011;69433;48.642;9.142;2023-12-22T05:51:45;3.88;;;1.40;;
80123;SDS011;69433;48.642;9.142;2023-12-22T05:54:20;6.28;;;1.63;;
80123;SDS011;69433;48.642;9.142;2023-12-22T05:56:46;4.45;;;1.48;;
80123;SDS011;69433;48.642;9.142;2023-12-22T05:59:11;5.85;;;1.63;;
80123;SDS011;69433;48.642;9.142;2023-12-22T06:16:06;3.55;;;1.98;;
80123;SDS011;69433;48.642;9.142;2023-12-22T06:18:35;2.70;;;1.38;;
80123;SDS011;69433;48.642;9.142;2023-12-22T06:21:00;3.25;;;1.35;;
80123;SDS011;69433;48.642;9.142;2023-12-22T06:23:25;4.15;;;1.70;;
80123;SDS011;69433;48.642;9.142;2023-12-22T06:25:50;3.50;;;1.48;;
80123;SDS011;69433;48.642;9.142;2023-12-22T06:28:16;4.88;;;1.63;;
80123;SDS011;69433;48.642;9.142;2023-12-22T06:30:42;3.55;;;1.45;;
80123;SDS011;69433;48.642;9.142;2023-12-22T06:35:57;2.80;;;1.27;;
80123;SDS011;69433;48.642;9.142;2023-12-22T06:38:24;3.25;;;1.42;;
80123;SDS011;69433;48.642;9.142;2023-12-22T06:40:51;4.10;;;1.60;;
80123;SDS011;69433;48.642;9.142;2023-12-22T06:43:16;4.30;;;1.42;;
80123;SDS011;69433;48.642;9.142;2023-12-22T06:48:42;2.13;;;1.20;;
80123;SDS011;69433;48.642;9.142;2023-12-22T06:51:21;4.68;;;1.30;;
80123;SDS011;69433;48.642;9.142;2023-12-22T06:54:02;3.42;;;1.33;;
80123;SDS011;69433;48.642;9.142;2023-12-22T06:56:43;3.78;;;1.50;;
80123;SDS011;69433;48.642;9.142;2023-12-22T06:59:23;3.10;;;1.42;;
80123;SDS011;69433;48.642;9.142;2023-12-22T07:01:55;4.25;;;1.40;;
80123;SDS011;69433;48.642;9.142;2023-12-22T07:07:42;2.83;;;1.30;;
80123;SDS011;69433;48.642;9.142;2023-12-22T07:10:09;7.72;;;1.33;;
80123;SDS011;69433;48.642;9.142;2023-12-22T07:12:54;3.20;;;1.38;;
80123;SDS011;69433;48.642;9.142;2023-12-22T07:17:51;3.92;;;1.45;;
80123;SDS011;69433;48.642;9.142;2023-12-22T07:20:18;4.03;;;1.70;;
80123;SDS011;69433;48.642;9.142;2023-12-22T07:22:48;2.97;;;1.20;;
80123;SDS011;69433;48.642;9.142;2023-12-22T07:25:23;2.80;;;1.27;;
80123;SDS011;69433;48.642;9.142;2023-12-22T07:30:17;5.38;;;1.33;;
80123;SDS011;69433;48.642;9.142;2023-12-22T07:32:58;3.38;;;1.00;;
80123;SDS011;69433;48.642;9.142;2023-12-22T07:35:23;3.25;;;1.40;;
80123;SDS011;69433;48.642;9.142;2023-12-22T07:45:48;3.30;;;1.25;;
80123;SDS011;69433;48.642;9.142;2023-12-22T07:48:15;3.10;;;1.27;;
80123;SDS011;69433;48.642;9.142;2023-12-22T07:53:51;4.80;;;1.30;;
80123;SDS011;69433;48.642;9.142;2023-12-22T07:56:17;6.25;;;1.42;;
80123;SDS011;69433;48.642;9.142;2023-12-22T08:04:17;3.85;;;1.40;;
80123;SDS011;69433;48.642;9.142;2023-12-22T08:06:43;3.80;;;1.40;;
80123;SDS011;69433;48.642;9.142;2023-12-22T08:09:21;3.72;;;1.52;;
80123;SDS011;69433;48.642;9.142;2023-12-22T08:14:43;2.72;;;1.30;;
80123;SDS011;69433;48.642;9.142;2023-12-22T08:17:09;4.70;;;1.52;;
80123;SDS011;69433;48.642;9.142;2023-12-22T08:19:37;3.15;;;1.40;;
80123;SDS011;69433;48.642;9.142;2023-12-22T08:22:12;4.18;;;1.40;;
80123;SDS011;69433;48.642;9.142;2023-12-22T08:24:38;6.03;;;1.80;;
80123;SDS011;69433;48.642;9.142;2023-12-22T08:27:14;4.13;;;1.55;;
80123;SDS011;69433;48.642;9.142;2023-12-22T08:29:39;2.47;;;1.10;;
80123;SDS011;69433;48.642;9.142;2023-12-22T08:34:54;3.50;;;1.73;;
80123;SDS011;69433;48.642;9.142;2023-12-22T08:37:30;3.55;;;1.60;;
80123;SDS011;69433;48.642;9.142;2023-12-22T08:40:03;10.68;;;1.52;;
80123;SDS011;69433;48.642;9.142;2023-12-22T08:42:32;5.53;;;1.52;;
80123;SDS011;69433;48.642;9.142;2023-12-22T08:44:57;4.30;;;1.90;;
80123;SDS011;69433;48.642;9.142;2023-12-22T08:47:30;3.40;;;1.48;;
80123;SDS011;69433;48.642;9.142;2023-12-22T08:49:55;2.75;;;1.40;;
80123;SDS011;69433;48.642;9.142;2023-12-22T08:52:23;5.97;;;1.50;;
80123;SDS011;69433;48.642;9.142;2023-12-22T08:54:59;3.22;;;1.40;;
80123;SDS011;69433;48.642;9.142;2023-12-22T08:57:24;4.25;;;1.63;;
80123;SDS011;69433;48.642;9.142;2023-12-22T09:05:27;3.85;;;1.60;;
80123;SDS011;69433;48.642;9.142;2023-12-22T09:07:55;4.50;;;2.03;;
80123;SDS011;69433;48.642;9.142;2023-12-22T09:10:21;6.38;;;2.17;;
80123;SDS011;69433;48.642;9.142;2023-12-22T09:22:26;3.58;;;1.50;;
80123;SDS011;69433;48.642;9.142;2023-12-22T09:31:11;2.35;;;1.13;;
80123;SDS011;69433;48.642;9.142;2023-12-22T09:33:50;6.05;;;1.85;;
80123;SDS011;69433;48.642;9.142;2023-12-22T09:36:15;3.95;;;1.50;;
80123;SDS011;69433;48.642;9.142;2023-12-22T09:38:55;3.83;;;1.63;;
80123;SDS011;69433;48.642;9.142;2023-12-22T09:41:20;4.72;;;1.58;;
80123;SDS011;69433;48.642;9.142;2023-12-22T09:43:49;4.85;;;1.55;;
80123;SDS011;69433;48.642;9.142;2023-12-22T09:49:42;5.68;;;1.73;;
80123;SDS011;69433;48.642;9.142;2023-12-22T09:52:16;4.32;;;1.58;;
80123;SDS011;69433;48.642;9.142;2023-12-22T09:54:42;4.32;;;1.50;;
80123;SDS011;69433;48.642;9.142;2023-12-22T09:57:09;6.43;;;1.50;;
80123;SDS011;69433;48.642;9.142;2023-12-22T10:02:39;3.50;;;1.48;;
80123;SDS011;69433;48.642;9.142;2023-12-22T10:05:16;5.72;;;1.50;;
80123;SDS011;69433;48.642;9.142;2023-12-22T10:10:51;3.47;;;1.25;;
80123;SDS011;69433;48.642;9.142;2023-12-22T10:13:17;2.85;;;1.38;;
80123;SDS011;69433;48.642;9.142;2023-12-22T10:15:51;4.70;;;1.38;;
80123;SDS011;69433;48.642;9.142;2023-12-22T10:18:30;3.03;;;1.45;;
80123;SDS011;69433;48.642;9.142;2023-12-22T10:21:01;4.15;;;1.45;;
80123;SDS011;69433;48.642;9.142;2023-12-22T10:26:12;4.72;;;1.33;;
80123;SDS011;69433;48.642;9.142;2023-12-22T10:28:46;3.15;;;1.42;;
80123;SDS011;69433;48.642;9.142;2023-12-22T10:31:21;3.78;;;1.65;;
80123;SDS011;69433;48.642;9.142;2023-12-22T10:39:09;3.67;;;1.20;;
80123;SDS011;69433;48.642;9.142;2023-12-22T10:41:35;3.17;;;1.52;;
80123;SDS011;69433;48.642;9.142;2023-12-22T10:50:39;5.63;;;1.58;;
80123;SDS011;69433;48.642;9.142;2023-12-22T10:53:07;3.38;;;1.60;;
80123;SDS011;69433;48.642;9.142;2023-12-22T10:55:49;4.32;;;1.83;;
80123;SDS011;69433;48.642;9.142;2023-12-22T11:01:14;3.83;;;1.40;;
80123;SDS011;69433;48.642;9.142;2023-12-22T11:03:40;3.03;;;1.23;;
80123;SDS011;69433;48.642;9.142;2023-12-22T11:06:10;5.45;;;1.70;;
80123;SDS011;69433;48.642;9.142;2023-12-22T11:08:44;2.28;;;1.27;;
80123;SDS011;69433;48.642;9.142;2023-12-22T11:11:19;3.20;;;1.33;;
80123;SDS011;69433;48.642;9.142;2023-12-22T11:14:00;2.80;;;1.25;;
80123;SDS011;69433;48.642;9.142;2023-12-22T11:16:29;3.25;;;1.55;;
80123;SDS011;69433;48.642;9.142;2023-12-22T11:27:52;3.17;;;1.30;;
80123;SDS011;69433;48.642;9.142;2023-12-22T11:30:19;3.50;;;1.40;;
80123;SDS011;69433;48.642;9.142;2023-12-22T11:32:54;4.22;;;1.55;;
80123;SDS011;69433;48.642;9.142;2023-12-22T11:38:44;2.92;;;1.35;;
80123;SDS011;69433;48.642;9.142;2023-12-22T11:41:26;3.10;;;1.23;;
80123;SDS011;69433;48.642;9.142;2023-12-22T11:43:55;3.78;;;1.38;;
80123;SDS011;69433;48.642;9.142;2023-12-22T11:46:23;3.80;;;1.45;;
80123;SDS011;69433;48.642;9.142;2023-12-22T11:51:38;3.25;;;1.40;;
80123;SDS011;69433;48.642;9.142;2023-12-22T11:54:52;3.20;;;1.50;;
80123;SDS011;69433;48.642;9.142;2023-12-22T12:03:09;3.50;;;1.08;;
80123;SDS011;69433;48.642;9.142;2023-12-22T12:08:46;3.10;;;1.30;;
80123;SDS011;69433;48.642;9.142;2023-12-22T12:14:32;2.95;;;1.33;;
80123;SDS011;69433;48.642;9.142;2023-12-22T12:17:06;3.38;;;1.30;;
80123;SDS011;69433;48.642;9.142;2023-12-22T12:19:39;1.67;;;0.95;;
80123;SDS011;69433;48.642;9.142;2023-12-22T12:22:08;2.90;;;1.23;;
80123;SDS011;69433;48.642;9.142;2023-12-22T12:27:18;3.53;;;1.30;;
80123;SDS011;69433;48.642;9.142;2023-12-22T12:29:53;3.55;;;1.40;;
80123;SDS011;69433;48.642;9.142;2023-12-22T12:35:18;2.67;;;1.33;;
80123;SDS011;69433;48.642;9.142;2023-12-22T12:37:58;4.25;;;1.40;;
80123;SDS011;69433;48.642;9.142;2023-12-22T12:40:25;4.07;;;1.30;;
80123;SDS011;69433;48.642;9.142;2023-12-22T12:43:07;5.40;;;1.50;;
80123;SDS011;69433;48.642;9.142;2023-12-22T12:45:39;4.07;;;1.38;;
80123;SDS011;69433;48.642;9.142;2023-12-22T12:48:05;2.20;;;1.15;;
80123;SDS011;69433;48.642;9.142;2023-12-22T12:50:31;3.92;;;1.40;;
80123;SDS011;69433;48.642;9.142;2023-12-22T12:55:55;4.30;;;1.45;;
80123;SDS011;69433;48.642;9.142;2023-12-22T12:58:31;2.75;;;1.50;;
80123;SDS011;69433;48.642;9.142;2023-12-22T13:01:07;3.92;;;1.85;;
80123;SDS011;69433;48.642;9.142;2023-12-22T13:12:12;3.50;;;2.13;;
80123;SDS011;69433;48.642;9.142;2023-12-22T13:14:38;3.72;;;2.22;;
80123;SDS011;69433;48.642;9.142;2023-12-22T13:17:06;4.18;;;2.38;;
80123;SDS011;69433;48.642;9.142;2023-12-22T13:19:47;3.90;;;2.17;;
80123;SDS011;69433;48.642;9.142;2023-12-22T13:22:12;3.80;;;2.10;;
80123;SDS011;69433;48.642;9.142;2023-12-22T13:30:18;3.72;;;2.00;;
80123;SDS011;69433;48.642;9.142;2023-12-22T13:33:18;3.38;;;1.55;;
80123;SDS011;69433;48.642;9.142;2023-12-22T13:35:50;4.13;;;1.80;;
80123;SDS011;69433;48.642;9.142;2023-12-22T13:38:32;3.88;;;1.80;;
80123;SDS011;69433;48.642;9.142;2023-12-22T13:41:17;5.45;;;1.90;;
80123;SDS011;69433;48.642;9.142;2023-12-22T13:43:44;4.68;;;2.20;;
80123;SDS011;69433;48.642;9.142;2023-12-22T13:49:10;3.55;;;1.60;;
80123;SDS011;69433;48.642;9.142;2023-12-22T13:51:42;3.78;;;1.42;;
80123;SDS011;69433;48.642;9.142;2023-12-22T13:54:10;3.13;;;1.63;;
80123;SDS011;69433;48.642;9.142;2023-12-22T14:02:32;1.90;;;1.20;;
80123;SDS011;69433;48.642;9.142;2023-12-22T14:05:10;3.00;;;1.35;;
80123;SDS011;69433;48.642;9.142;2023-12-22T14:11:09;2.92;;;1.02;;
80123;SDS011;69433;48.642;9.142;2023-12-22T14:19:37;2.88;;;1.20;;
80123;SDS011;69433;48.642;9.142;2023-12-22T14:22:02;1.70;;;1.30;;
80123;SDS011;69433;48.642;9.142;2023-12-22T14:24:28;2.10;;;1.30;;
80123;SDS011;69433;48.642;9.142;2023-12-22T14:32:35;4.53;;;2.13;;
80123;SDS011;69433;48.642;9.142;2023-12-22T14:35:17;4.68;;;2.20;;
80123;SDS011;69433;48.642;9.142;2023-12-22T14:37:45;2.72;;;1.70;;
80123;SDS011;69433;48.642;9.142;2023-12-22T14:40:13;4.90;;;1.80;;
80123;SDS011;69433;48.642;9.142;2023-12-22T14:46:00;3.28;;;1.80;;
80123;SDS011;69433;48.642;9.142;2023-12-22T14:59:57;2.95;;;1.70;;
80123;SDS011;69433;48.642;9.142;2023-12-22T15:05:47;3.22;;;1.70;;
80123;SDS011;69433;48.642;9.142;2023-12-22T15:11:03;2.72;;;1.60;;
80123;SDS011;69433;48.642;9.142;2023-12-22T15:16:08;1.85;;;1.23;;
80123;SDS011;69433;48.642;9.142;2023-12-22T15:18:35;4.55;;;2.00;;
80123;SDS011;69433;48.642;9.142;2023-12-22T15:24:04;3.05;;;1.50;;
80123;SDS011;69433;48.642;9.142;2023-12-22T15:26:38;2.08;;;1.40;;
80123;SDS011;69433;48.642;9.142;2023-12-22T15:31:52;10.60;;;6.50;;
80123;SDS011;69433;48.642;9.142;2023-12-22T15:40:30;12.73;;;8.70;;
80123;SDS011;69433;48.642;9.142;2023-12-22T15:43:05;13.43;;;8.25;;
80123;SDS011;69433;48.642;9.142;2023-12-22T15:45:37;13.25;;;8.10;;
80123;SDS011;69433;48.642;9.142;2023-12-22T16:05:01;11.20;;;6.32;;
80123;SDS011;69433;48.642;9.142;2023-12-22T16:07:29;9.75;;;6.63;;
80123;SDS011;69433;48.642;9.142;2023-12-22T16:12:52;8.80;;;5.68;;
80123;SDS011;69433;48.642;9.142;2023-12-22T16:15:25;7.95;;;5.72;;
80123;SDS011;69433;48.642;9.142;2023-12-22T16:17:51;15.45;;;10.20;;
80123;SDS011;69433;48.642;9.142;2023-12-22T16:20:16;26.80;;;9.88;;
80123;SDS011;69433;48.642;9.142;2023-12-22T16:26:04;25.35;;;8.45;;
80123;SDS011;69433;48.642;9.142;2023-12-22T16:28:49;15.52;;;7.95;;
80123;SDS011;69433;48.642;9.142;2023-12-22T16:33:57;12.05;;;7.40;;
80123;SDS011;69433;48.642;9.142;2023-12-22T16:36:23;11.45;;;6.90;;
80123;SDS011;69433;48.642;9.142;2023-12-22T16:42:19;12.60;;;6.95;;
80123;SDS011;69433;48.642;9.142;2023-12-22T16:59:38;16.20;;;11.45;;
80123;SDS011;69433;48.642;9.142;2023-12-22T17:05:31;16.13;;;11.13;;
80123;SDS011;69433;48.642;9.142;2023-12-22T17:08:03;18.98;;;11.02;;
80123;SDS011;69433;48.642;9.142;2023-12-22T17:10:37;16.95;;;10.93;;
80123;SDS011;69433;48.642;9.142;2023-12-22T17:13:10;15.68;;;11.00;;
80123;SDS011;69433;48.642;9.142;2023-12-22T17:15:35;18.88;;;11.45;;
80123;SDS011;69433;48.642;9.142;2023-12-22T17:18:03;17.90;;;10.80;;
80123;SDS011;69433;48.642;9.142;2023-12-22T17:27:30;14.30;;;10.02;;
80123;SDS011;69433;48.642;9.142;2023-12-22T17:30:23;15.93;;;10.88;;
80123;SDS011;69433;48.642;9.142;2023-12-22T17:32:51;16.45;;;9.45;;
80123;SDS011;69433;48.642;9.142;2023-12-22T17:35:29;15.10;;;9.98;;
80123;SDS011;69433;48.642;9.142;2023-12-22T17:38:03;15.27;;;9.50;;
80123;SDS011;69433;48.642;9.142;2023-12-22T17:40:48;14.75;;;10.23;;
80123;SDS011;69433;48.642;9.142;2023-12-22T17:43:18;13.57;;;8.70;;
80123;SDS011;69433;48.642;9.142;2023-12-22T17:45:46;17.00;;;9.70;;
80123;SDS011;69433;48.642;9.142;2023-12-22T17:48:17;13.18;;;8.82;;
80123;SDS011;69433;48.642;9.142;2023-12-22T17:50:44;14.52;;;9.43;;
80123;SDS011;69433;48.642;9.142;2023-12-22T17:56:13;14.27;;;9.18;;
80123;SDS011;69433;48.642;9.142;2023-12-22T17:58:38;12.30;;;8.95;;
80123;SDS011;69433;48.642;9.142;2023-12-22T18:07:28;11.10;;;8.07;;
80123;SDS011;69433;48.642;9.142;2023-12-22T18:12:58;11.05;;;7.85;;
80123;SDS011;69433;48.642;9.142;2023-12-22T18:18:49;10.88;;;7.78;;
80123;SDS011;69433;48.642;9.142;2023-12-22T18:21:15;11.00;;;7.00;;
80123;SDS011;69433;48.642;9.142;2023-12-22T18:26:35;12.20;;;7.13;;
80123;SDS011;69433;48.642;9.142;2023-12-22T18:29:03;10.05;;;7.68;;
80123;SDS011;69433;48.642;9.142;2023-12-22T18:31:37;9.95;;;6.75;;
80123;SDS011;69433;48.642;9.142;2023-12-22T18:34:18;10.93;;;7.47;;
80123;SDS011;69433;48.642;9.142;2023-12-22T18:36:45;10.75;;;7.53;;
80123;SDS011;69433;48.642;9.142;2023-12-22T18:39:11;11.63;;;7.43;;
80123;SDS011;69433;48.642;9.142;2023-12-22T18:44:59;11.43;;;7.45;;
80123;SDS011;69433;48.642;9.142;2023-12-22T18:47:42;9.95;;;6.35;;
80123;SDS011;69433;48.642;9.142;2023-12-22T18:53:21;10.60;;;6.68;;
80123;SDS011;69433;48.642;9.142;2023-12-22T18:58:24;8.40;;;6.45;;
80123;SDS011;69433;48.642;9.142;2023-12-22T19:00:53;9.95;;;6.40;;
80123;SDS011;69433;48.642;9.142;2023-12-22T19:06:10;9.40;;;6.75;;
80123;SDS011;69433;48.642;9.142;2023-12-22T19:08:37;8.77;;;6.43;;
80123;SDS011;69433;48.642;9.142;2023-12-22T19:11:04;9.75;;;6.20;;
80123;SDS011;69433;48.642;9.142;2023-12-22T19:13:29;8.77;;;6.50;;
80123;SDS011;69433;48.642;9.142;2023-12-22T19:15:55;7.65;;;5.72;;
80123;SDS011;69433;48.642;9.142;2023-12-22T19:18:20;7.60;;;5.90;;
80123;SDS011;69433;48.642;9.142;2023-12-22T19:23:49;8.27;;;5.70;;
80123;SDS011;69433;48.642;9.142;2023-12-22T19:26:22;8.68;;;5.97;;
80123;SDS011;69433;48.642;9.142;2023-12-22T19:28:47;11.70;;;6.10;;
80123;SDS011;69433;48.642;9.142;2023-12-22T19:31:13;9.35;;;5.82;;
80123;SDS011;69433;48.642;9.142;2023-12-22T19:33:52;8.02;;;5.57;;
80123;SDS011;69433;48.642;9.142;2023-12-22T19:36:20;7.88;;;5.65;;
80123;SDS011;69433;48.642;9.142;2023-12-22T19:38:56;7.57;;;5.35;;
80123;SDS011;69433;48.642;9.142;2023-12-22T19:41:27;7.97;;;5.38;;
80123;SDS011;69433;48.642;9.142;2023-12-22T19:46:57;5.93;;;4.13;;
80123;SDS011;69433;48.642;9.142;2023-12-22T19:49:23;9.63;;;4.35;;
80123;SDS011;69433;48.642;9.142;2023-12-22T19:51:51;6.65;;;4.00;;
80123;SDS011;69433;48.642;9.142;2023-12-22T19:54:17;5.75;;;4.00;;
80123;SDS011;69433;48.642;9.142;2023-12-22T19:56:55;7.50;;;4.28;;
80123;SDS011;69433;48.642;9.142;2023-12-22T20:02:51;10.35;;;4.22;;
80123;SDS011;69433;48.642;9.142;2023-12-22T20:13:45;8.55;;;4.15;;
80123;SDS011;69433;48.642;9.142;2023-12-22T20:16:12;6.13;;;4.40;;
80123;SDS011;69433;48.642;9.142;2023-12-22T20:18:38;5.90;;;3.78;;
80123;SDS011;69433;48.642;9.142;2023-12-22T20:21:18;5.57;;;3.67;;
80123;SDS011;69433;48.642;9.142;2023-12-22T20:23:55;6.35;;;3.80;;
80123;SDS011;69433;48.642;9.142;2023-12-22T20:26:20;5.32;;;3.83;;
80123;SDS011;69433;48.642;9.142;2023-12-22T20:38:42;6.40;;;3.95;;
80123;SDS011;69433;48.642;9.142;2023-12-22T20:43:51;6.85;;;3.90;;
80123;SDS011;69433;48.642;9.142;2023-12-22T20:46:25;8.93;;;3.85;;
80123;SDS011;69433;48.642;9.142;2023-12-22T20:48:50;5.43;;;3.88;;
80123;SDS011;69433;48.642;9.142;2023-12-22T20:51:24;5.75;;;3.65;;
80123;SDS011;69433;48.642;9.142;2023-12-22T20:54:06;5.10;;;3.42;;
80123;SDS011;69433;48.642;9.142;2023-12-22T20:56:40;5.05;;;3.65;;
80123;SDS011;69433;48.642;9.142;2023-12-22T21:01:46;4.85;;;3.40;;
80123;SDS011;69433;48.642;9.142;2023-12-22T21:07:03;7.18;;;3.80;;
80123;SDS011;69433;48.642;9.142;2023-12-22T21:12:00;4.78;;;3.15;;
80123;SDS011;69433;48.642;9.142;2023-12-22T21:14:39;8.80;;;4.00;;
80123;SDS011;69433;48.642;9.142;2023-12-22T21:20:29;5.82;;;3.78;;
80123;SDS011;69433;48.642;9.142;2023-12-22T21:22:57;6.45;;;3.75;;
80123;SDS011;69433;48.642;9.142;2023-12-22T21:25:22;6.15;;;3.33;;
80123;SDS011;69433;48.642;9.142;2023-12-22T21:27:48;4.60;;;3.50;;
80123;SDS011;69433;48.642;9.142;2023-12-22T21:30:31;5.75;;;3.53;;
80123;SDS011;69433;48.642;9.142;2023-12-22T21:35:53;5.65;;;3.42;;
80123;SDS011;69433;48.642;9.142;2023-12-22T21:41:19;4.30;;;3.10;;
80123;SDS011;69433;48.642;9.142;2023-12-22T21:44:00;6.70;;;3.33;;
80123;SDS011;69433;48.642;9.142;2023-12-22T21:49:20;4.78;;;3.20;;